Terminal Aerodrome Forecast
Issued by NWS Raleigh/Durham, NC

Home | Current Version | Previous Version | Text Only | Print | Product List | Glossary On
Versions: 1 2 3 4 5 6 7 8 9 10 11 12 13 14 15 16 17
000
FTUS42 KRAH 290537
TAFFAY
TAF
KFAY 290537Z 2906/3006 02009KT P6SM SCT003
     FM290900 02006KT 4SM BR OVC004
     FM291500 02006KT P6SM BKN020
     FM291800 VRB05KT P6SM BKN250=

USA.gov is the U.S. government's official web portal to all federal, state and local government web resources and services.